Relevés horaires Bierset (Belgique)


Relevés horaires à Bierset - Samedi 01 Sept. 2018
Heure UTC1 Température [°C] Vent [km/h] Hum. [%] Pres.4 [hPa] Visi. [Km] Nébu. [octa] Préc.5 [mm] Cond.
2m. Res. Ros. Dir.2 Vit. Moy. Raf.3
23:00 13.4 13.4 6.1 NE 1.9 3.7 5.6 61 1027(-0.1/3h) 40 0/8 -- --
22:00 13.5 13.5 5.7 NE 3.7 5.6 7.4 59 1027.1(0.3/3h) 40 1/8 -- --
21:00 13.4 13.4 6.0 NE 5.6 7.4 11.1 61 1027.1(0.6/3h) 40 1/8 -- --
20:00 13.2 13.2 5.9 NNE 3.7 5.6 5.6 61 1027.1(0.8/3h) 40 1/8 -- --
19:00 14.5 14.5 5.6 NNE 5.6 7.4 9.3 55 1026.7(0.5/3h) 40 1/8 -- --
18:00 17.5 17.5 5.1 NNE 7.4 9.3 20.4 44 1026.2(0.3/3h) 40 1/8 0/12h
--
17:00 18.9 18.9 4.9 NE 7.4 7.4 18.5 40 1025.9(-0.2/3h) 40 1/8 -- --
16:00 19.8 19.8 4.6 NE 7.4 9.3 16.7 37 1025.8(-0.6/3h) 40 1/8 -- --
15:00 20.2 20.2 4.6 NE 5.6 9.3 20.4 36 1025.7(-0.7/3h) 30 1/8 -- --
14:00 19.7 19.7 3.9 NNE 7.4 9.3 14.8 35 1026.1(-0.6/3h) 30 1/8 -- --
13:00 19.9 19.9 4.9 N 9.3 9.3 20.4 37 1026.4(-0.5/3h) 30 2/8 -- --
12:00 18.9 18.9 5.4 ENE 7.4 9.3 20.4 41 1026.5(-0.4/3h) 40 2/8 0/6h
--
11:00 17.8 17.8 6.4 NE 7.4 9.3 14.8 47 1026.8(0.3/3h) 40 2/8 -- --
10:00 17.1 17.1 7.6 NE 5.6 7.4 11.1 54 1027.1(0.8/3h) 20 1/8 -- --
09:00 15.8 15.8 8.7 NE 3.7 5.6 7.4 63 1027.1(1.2/3h) 20 0/8 -- --
08:00 13.8 13.8 9.3 N 1.9 1.9 5.6 74 1026.8(1.1/3h) 20 0/8 -- --
07:00 12.1 12.1 9.6 NNO 1.9 3.7 5.6 85 1026.6(1.3/3h) 15 0/8 -- --
06:00 9.4 9.4 8.1 SE 3.7 3.7 14.8 92 1026.4(0.9/3h) 10 0/8 0/12h
--
05:00 9.5 9.5 7.7 S 1.9 3.7 14.8 89 1026(0.6/3h) 10 0/8 -- --
04:00 9.2 9.2 7.8 SE 1.9 1.9 13.0 91 1025.5(0.2/3h) 30 0/8 -- --
03:00 9.5 9.5 7.4 N 1.9 3.7 9.3 87 1025.5(0.2/3h) 30 0/8 -- --
02:00 10.8 10.8 8.0 ENE 1.9 1.9 3.7 83 1025.3(0.2/3h) 30 0/8 -- --
01:00 11.5 11.5 8.3 NE 1.9 3.7 9.3 81 1025.1(0.0/3h) 30 0/8 -- --
00:00 12.3 12.3 8.2 ENE 3.7 7.4 11.1 76 1025(0.2/3h) 30 0/8 0/6h
0/24h
--

1 Coordinated Universal Time. Actuellement il est 07:00 locale et 05:00 UTC.

2 Le vent souffle depuis la direction indiquée vers la direction oposée.

3 Les rafales max. sont disponible 40 min après l'heure du relevé.

4 Pour les stations d'altitude (plus de 600m) le géopotentiel du niveau le plus proche de la pression obligatoire est indiqué.

5 Les stations disposant d'un diffuseur peuvent indiquer "trace". Cela signifie que des précipitations ont touchés le sol mais que la quantité est inférieure à 0.1 mm.

Récapitulatif de la journée
Température [°C] Vent [km/h] Ensoleillement4 [h] Precipitations totale5 [mm] Pression [Hpa]
Min1 Max.2 Moy.3 Max. Min Max.
8.8 20.7 6.1 20.4 0 h 0 min 0 1025.0 1027.1

1 Température minimale relevée entre 18:00 UTC la veille et 18:00 UTC le jour donné.

2 Température maximale relevée entre 06:00 UTC le jour donné et 06:00 UTC le lendemain.

3 Vent moyen de la journée basé sur les relevés horaires.

4 Ensoleillement en heures relevé entre 06:00 UTC la veille et 06:00 UTC le jour donné.

5 Précipitations totales tombées entre 06:00 UTC la jour donné et 06:00 UTC le lendemain.

Graphiques horaires